sensor_id;sensor_type;location;lat;lon;timestamp;temperature;humidity
11083;DHT22;5595;50.186;8.468;2022-12-20T00:01:32;3.80;99.90
11083;DHT22;5595;50.186;8.468;2022-12-20T00:04:00;3.80;99.90
11083;DHT22;5595;50.186;8.468;2022-12-20T00:06:28;3.80;99.90
11083;DHT22;5595;50.186;8.468;2022-12-20T00:08:56;3.80;99.90
11083;DHT22;5595;50.186;8.468;2022-12-20T00:11:25;3.80;99.90
11083;DHT22;5595;50.186;8.468;2022-12-20T00:13:52;3.80;99.90
11083;DHT22;5595;50.186;8.468;2022-12-20T00:16:21;3.70;99.90
11083;DHT22;5595;50.186;8.468;2022-12-20T00:18:51;3.80;99.90
11083;DHT22;5595;50.186;8.468;2022-12-20T00:21:18;3.70;99.90
11083;DHT22;5595;50.186;8.468;2022-12-20T00:23:45;3.70;99.90
11083;DHT22;5595;50.186;8.468;2022-12-20T00:26:13;3.70;99.90
11083;DHT22;5595;50.186;8.468;2022-12-20T00:28:42;3.60;99.90
11083;DHT22;5595;50.186;8.468;2022-12-20T00:31:10;3.60;99.90
11083;DHT22;5595;50.186;8.468;2022-12-20T00:33:38;3.60;99.90
11083;DHT22;5595;50.186;8.468;2022-12-20T00:36:06;3.70;99.90
11083;DHT22;5595;50.186;8.468;2022-12-20T00:38:34;3.70;99.90
11083;DHT22;5595;50.186;8.468;2022-12-20T00:41:01;3.80;99.90
11083;DHT22;5595;50.186;8.468;2022-12-20T00:43:29;3.80;99.90
11083;DHT22;5595;50.186;8.468;2022-12-20T00:45:58;3.80;99.90
11083;DHT22;5595;50.186;8.468;2022-12-20T00:48:25;3.80;99.90
11083;DHT22;5595;50.186;8.468;2022-12-20T00:50:56;3.70;99.90
11083;DHT22;5595;50.186;8.468;2022-12-20T00:53:23;3.70;99.90
11083;DHT22;5595;50.186;8.468;2022-12-20T00:55:50;3.70;99.90
11083;DHT22;5595;50.186;8.468;2022-12-20T00:58:16;3.70;99.90
11083;DHT22;5595;50.186;8.468;2022-12-20T01:00:43;3.70;99.90
11083;DHT22;5595;50.186;8.468;2022-12-20T01:03:12;3.70;99.90
11083;DHT22;5595;50.186;8.468;2022-12-20T01:05:38;3.70;99.90
11083;DHT22;5595;50.186;8.468;2022-12-20T01:08:08;3.70;99.90
11083;DHT22;5595;50.186;8.468;2022-12-20T01:10:35;3.70;99.90
11083;DHT22;5595;50.186;8.468;2022-12-20T01:13:02;3.70;99.90
11083;DHT22;5595;50.186;8.468;2022-12-20T01:15:28;3.70;99.90
11083;DHT22;5595;50.186;8.468;2022-12-20T01:17:55;3.70;99.90
11083;DHT22;5595;50.186;8.468;2022-12-20T01:20:23;3.70;99.90
11083;DHT22;5595;50.186;8.468;2022-12-20T01:22:50;3.70;99.90
11083;DHT22;5595;50.186;8.468;2022-12-20T01:25:17;3.70;99.90
11083;DHT22;5595;50.186;8.468;2022-12-20T01:27:44;3.70;99.90
11083;DHT22;5595;50.186;8.468;2022-12-20T01:30:12;3.70;99.90
11083;DHT22;5595;50.186;8.468;2022-12-20T01:32:39;3.80;99.90
11083;DHT22;5595;50.186;8.468;2022-12-20T01:35:06;3.90;99.90
11083;DHT22;5595;50.186;8.468;2022-12-20T01:37:34;3.90;99.90
11083;DHT22;5595;50.186;8.468;2022-12-20T01:40:02;4.00;99.90
11083;DHT22;5595;50.186;8.468;2022-12-20T01:42:29;4.00;99.90
11083;DHT22;5595;50.186;8.468;2022-12-20T01:44:58;4.00;99.90
11083;DHT22;5595;50.186;8.468;2022-12-20T01:47:28;4.00;99.90
11083;DHT22;5595;50.186;8.468;2022-12-20T01:49:57;4.00;99.90
11083;DHT22;5595;50.186;8.468;2022-12-20T01:52:32;4.00;99.90
11083;DHT22;5595;50.186;8.468;2022-12-20T01:55:07;3.90;99.90
11083;DHT22;5595;50.186;8.468;2022-12-20T01:57:38;3.90;99.90
11083;DHT22;5595;50.186;8.468;2022-12-20T02:00:07;3.90;99.90
11083;DHT22;5595;50.186;8.468;2022-12-20T02:02:35;3.80;99.90
11083;DHT22;5595;50.186;8.468;2022-12-20T02:05:03;3.80;99.90
11083;DHT22;5595;50.186;8.468;2022-12-20T02:07:33;3.70;99.90
11083;DHT22;5595;50.186;8.468;2022-12-20T02:10:03;3.60;99.90
11083;DHT22;5595;50.186;8.468;2022-12-20T02:12:37;3.50;99.90
11083;DHT22;5595;50.186;8.468;2022-12-20T02:15:15;3.50;99.90
11083;DHT22;5595;50.186;8.468;2022-12-20T02:17:50;3.40;99.90
11083;DHT22;5595;50.186;8.468;2022-12-20T02:20:59;3.40;99.90
11083;DHT22;5595;50.186;8.468;2022-12-20T02:23:48;3.40;99.90
11083;DHT22;5595;50.186;8.468;2022-12-20T02:29:22;3.20;99.90
11083;DHT22;5595;50.186;8.468;2022-12-20T02:31:57;3.20;99.90
11083;DHT22;5595;50.186;8.468;2022-12-20T02:34:26;3.10;99.90
11083;DHT22;5595;50.186;8.468;2022-12-20T02:36:55;3.20;99.90
11083;DHT22;5595;50.186;8.468;2022-12-20T02:39:23;3.20;99.90
11083;DHT22;5595;50.186;8.468;2022-12-20T02:41:54;3.20;99.90
11083;DHT22;5595;50.186;8.468;2022-12-20T02:44:25;3.20;99.90
11083;DHT22;5595;50.186;8.468;2022-12-20T02:47:13;3.20;99.90
11083;DHT22;5595;50.186;8.468;2022-12-20T02:49:42;3.20;99.90
11083;DHT22;5595;50.186;8.468;2022-12-20T02:52:11;3.20;99.90
11083;DHT22;5595;50.186;8.468;2022-12-20T02:54:39;3.30;99.90
11083;DHT22;5595;50.186;8.468;2022-12-20T02:57:12;3.30;99.90
11083;DHT22;5595;50.186;8.468;2022-12-20T02:59:48;3.30;99.90
11083;DHT22;5595;50.186;8.468;2022-12-20T03:02:18;3.40;99.90
11083;DHT22;5595;50.186;8.468;2022-12-20T03:04:45;3.30;99.90
11083;DHT22;5595;50.186;8.468;2022-12-20T03:07:14;3.40;99.90
11083;DHT22;5595;50.186;8.468;2022-12-20T03:09:43;3.50;99.90
11083;DHT22;5595;50.186;8.468;2022-12-20T03:12:11;3.50;99.90
11083;DHT22;5595;50.186;8.468;2022-12-20T03:14:38;3.60;99.90
11083;DHT22;5595;50.186;8.468;2022-12-20T03:17:06;3.70;99.90
11083;DHT22;5595;50.186;8.468;2022-12-20T03:19:34;3.70;99.90
11083;DHT22;5595;50.186;8.468;2022-12-20T03:22:01;3.70;99.90
11083;DHT22;5595;50.186;8.468;2022-12-20T03:24:28;3.70;99.90
11083;DHT22;5595;50.186;8.468;2022-12-20T03:26:57;3.70;99.90
11083;DHT22;5595;50.186;8.468;2022-12-20T03:29:23;3.70;99.90
11083;DHT22;5595;50.186;8.468;2022-12-20T03:31:50;3.80;99.90
11083;DHT22;5595;50.186;8.468;2022-12-20T03:34:17;3.90;99.90
11083;DHT22;5595;50.186;8.468;2022-12-20T03:36:45;3.90;99.90
11083;DHT22;5595;50.186;8.468;2022-12-20T03:39:12;4.00;99.90
11083;DHT22;5595;50.186;8.468;2022-12-20T03:41:39;4.00;99.90
11083;DHT22;5595;50.186;8.468;2022-12-20T03:44:06;4.00;99.90
11083;DHT22;5595;50.186;8.468;2022-12-20T03:46:33;4.10;99.90
11083;DHT22;5595;50.186;8.468;2022-12-20T03:49:00;4.20;99.90
11083;DHT22;5595;50.186;8.468;2022-12-20T03:51:26;4.20;99.90
11083;DHT22;5595;50.186;8.468;2022-12-20T03:53:55;4.20;99.90
11083;DHT22;5595;50.186;8.468;2022-12-20T03:56:22;4.30;99.90
11083;DHT22;5595;50.186;8.468;2022-12-20T03:58:49;4.20;99.90
11083;DHT22;5595;50.186;8.468;2022-12-20T04:01:17;4.30;99.90
11083;DHT22;5595;50.186;8.468;2022-12-20T04:03:44;4.20;99.90
11083;DHT22;5595;50.186;8.468;2022-12-20T04:06:11;4.20;99.90
11083;DHT22;5595;50.186;8.468;2022-12-20T04:08:38;4.10;99.90
11083;DHT22;5595;50.186;8.468;2022-12-20T04:11:06;4.10;99.90
11083;DHT22;5595;50.186;8.468;2022-12-20T04:13:42;4.10;99.90
11083;DHT22;5595;50.186;8.468;2022-12-20T04:16:09;4.10;99.90
11083;DHT22;5595;50.186;8.468;2022-12-20T04:18:36;4.10;99.90
11083;DHT22;5595;50.186;8.468;2022-12-20T04:21:04;4.10;99.90
11083;DHT22;5595;50.186;8.468;2022-12-20T04:23:32;4.10;99.90
11083;DHT22;5595;50.186;8.468;2022-12-20T04:25:59;4.10;99.90
11083;DHT22;5595;50.186;8.468;2022-12-20T04:28:28;4.00;99.90
11083;DHT22;5595;50.186;8.468;2022-12-20T04:30:55;4.00;99.90
11083;DHT22;5595;50.186;8.468;2022-12-20T04:33:23;4.10;99.90
11083;DHT22;5595;50.186;8.468;2022-12-20T04:35:50;4.10;99.90
11083;DHT22;5595;50.186;8.468;2022-12-20T04:38:17;4.00;99.90
11083;DHT22;5595;50.186;8.468;2022-12-20T04:40:44;4.10;99.90
11083;DHT22;5595;50.186;8.468;2022-12-20T04:43:13;4.10;99.90
11083;DHT22;5595;50.186;8.468;2022-12-20T04:45:41;4.20;99.90
11083;DHT22;5595;50.186;8.468;2022-12-20T04:48:08;4.20;99.90
11083;DHT22;5595;50.186;8.468;2022-12-20T04:50:35;4.20;99.90
11083;DHT22;5595;50.186;8.468;2022-12-20T04:53:02;4.30;99.90
11083;DHT22;5595;50.186;8.468;2022-12-20T04:55:46;4.50;99.90
11083;DHT22;5595;50.186;8.468;2022-12-20T04:58:13;4.60;99.90
11083;DHT22;5595;50.186;8.468;2022-12-20T05:00:42;4.70;99.90
11083;DHT22;5595;50.186;8.468;2022-12-20T05:03:09;4.80;99.90
11083;DHT22;5595;50.186;8.468;2022-12-20T05:05:36;4.90;99.90
11083;DHT22;5595;50.186;8.468;2022-12-20T05:08:03;4.90;99.90
11083;DHT22;5595;50.186;8.468;2022-12-20T05:10:30;5.00;99.90
11083;DHT22;5595;50.186;8.468;2022-12-20T05:12:57;4.90;99.90
11083;DHT22;5595;50.186;8.468;2022-12-20T05:15:24;4.90;99.90
11083;DHT22;5595;50.186;8.468;2022-12-20T05:17:52;5.00;99.90
11083;DHT22;5595;50.186;8.468;2022-12-20T05:20:24;4.90;99.90
11083;DHT22;5595;50.186;8.468;2022-12-20T05:22:51;5.00;99.90
11083;DHT22;5595;50.186;8.468;2022-12-20T05:25:38;5.00;99.90
11083;DHT22;5595;50.186;8.468;2022-12-20T05:28:25;5.00;99.90
11083;DHT22;5595;50.186;8.468;2022-12-20T05:30:51;5.00;99.90
11083;DHT22;5595;50.186;8.468;2022-12-20T05:33:20;5.10;99.90
11083;DHT22;5595;50.186;8.468;2022-12-20T05:35:46;5.20;99.90
11083;DHT22;5595;50.186;8.468;2022-12-20T05:38:13;5.10;99.90
11083;DHT22;5595;50.186;8.468;2022-12-20T05:40:40;5.10;99.90
11083;DHT22;5595;50.186;8.468;2022-12-20T05:43:07;5.10;99.90
11083;DHT22;5595;50.186;8.468;2022-12-20T05:45:34;5.00;99.90
11083;DHT22;5595;50.186;8.468;2022-12-20T05:48:01;5.00;99.90
11083;DHT22;5595;50.186;8.468;2022-12-20T05:50:29;4.90;99.90
11083;DHT22;5595;50.186;8.468;2022-12-20T05:52:56;4.90;99.90
11083;DHT22;5595;50.186;8.468;2022-12-20T05:55:23;4.90;99.90
11083;DHT22;5595;50.186;8.468;2022-12-20T05:57:50;4.90;99.90
11083;DHT22;5595;50.186;8.468;2022-12-20T06:00:17;4.90;99.90
11083;DHT22;5595;50.186;8.468;2022-12-20T06:02:44;4.90;99.90
11083;DHT22;5595;50.186;8.468;2022-12-20T06:05:11;4.80;99.90
11083;DHT22;5595;50.186;8.468;2022-12-20T06:07:39;4.80;99.90
11083;DHT22;5595;50.186;8.468;2022-12-20T06:10:07;4.80;99.90
11083;DHT22;5595;50.186;8.468;2022-12-20T06:12:35;4.70;99.90
11083;DHT22;5595;50.186;8.468;2022-12-20T06:15:01;4.70;99.90
11083;DHT22;5595;50.186;8.468;2022-12-20T06:17:28;4.70;99.90
11083;DHT22;5595;50.186;8.468;2022-12-20T06:19:57;4.70;99.90
11083;DHT22;5595;50.186;8.468;2022-12-20T06:22:24;4.70;99.90
11083;DHT22;5595;50.186;8.468;2022-12-20T06:24:52;4.60;99.90
11083;DHT22;5595;50.186;8.468;2022-12-20T06:27:19;4.70;99.90
11083;DHT22;5595;50.186;8.468;2022-12-20T06:29:47;4.60;99.90
11083;DHT22;5595;50.186;8.468;2022-12-20T06:32:16;4.60;99.90
11083;DHT22;5595;50.186;8.468;2022-12-20T06:34:43;4.60;99.90
11083;DHT22;5595;50.186;8.468;2022-12-20T06:37:10;4.60;99.90
11083;DHT22;5595;50.186;8.468;2022-12-20T06:39:37;4.70;99.90
11083;DHT22;5595;50.186;8.468;2022-12-20T06:42:05;4.60;99.90
11083;DHT22;5595;50.186;8.468;2022-12-20T06:44:32;4.60;99.90
11083;DHT22;5595;50.186;8.468;2022-12-20T06:47:00;4.60;99.90
11083;DHT22;5595;50.186;8.468;2022-12-20T06:49:26;4.50;99.90
11083;DHT22;5595;50.186;8.468;2022-12-20T06:51:55;4.50;99.90
11083;DHT22;5595;50.186;8.468;2022-12-20T06:54:22;4.50;99.90
11083;DHT22;5595;50.186;8.468;2022-12-20T06:56:49;4.40;99.90
11083;DHT22;5595;50.186;8.468;2022-12-20T06:59:17;4.50;99.90
11083;DHT22;5595;50.186;8.468;2022-12-20T07:01:47;4.40;99.90
11083;DHT22;5595;50.186;8.468;2022-12-20T07:04:14;4.40;99.90
11083;DHT22;5595;50.186;8.468;2022-12-20T07:06:41;4.40;99.90
11083;DHT22;5595;50.186;8.468;2022-12-20T07:09:08;4.40;99.90
11083;DHT22;5595;50.186;8.468;2022-12-20T07:11:35;4.50;99.90
11083;DHT22;5595;50.186;8.468;2022-12-20T07:14:02;4.50;99.90
11083;DHT22;5595;50.186;8.468;2022-12-20T07:16:31;4.50;99.90
11083;DHT22;5595;50.186;8.468;2022-12-20T07:18:58;4.50;99.90
11083;DHT22;5595;50.186;8.468;2022-12-20T07:21:24;4.50;99.90
11083;DHT22;5595;50.186;8.468;2022-12-20T07:23:51;4.40;99.90
11083;DHT22;5595;50.186;8.468;2022-12-20T07:26:18;4.50;99.90
11083;DHT22;5595;50.186;8.468;2022-12-20T07:28:45;4.50;99.90
11083;DHT22;5595;50.186;8.468;2022-12-20T07:31:12;4.50;99.90
11083;DHT22;5595;50.186;8.468;2022-12-20T07:33:40;4.60;99.90
11083;DHT22;5595;50.186;8.468;2022-12-20T07:36:09;4.60;99.90
11083;DHT22;5595;50.186;8.468;2022-12-20T07:38:37;4.60;99.90
11083;DHT22;5595;50.186;8.468;2022-12-20T07:41:06;4.60;99.90
11083;DHT22;5595;50.186;8.468;2022-12-20T07:43:33;4.60;99.90
11083;DHT22;5595;50.186;8.468;2022-12-20T07:46:00;4.70;99.90
11083;DHT22;5595;50.186;8.468;2022-12-20T07:48:28;4.60;99.90
11083;DHT22;5595;50.186;8.468;2022-12-20T07:50:59;4.60;99.90
11083;DHT22;5595;50.186;8.468;2022-12-20T07:53:28;4.70;99.90
11083;DHT22;5595;50.186;8.468;2022-12-20T07:55:56;4.70;99.90
11083;DHT22;5595;50.186;8.468;2022-12-20T07:58:24;4.70;99.90
11083;DHT22;5595;50.186;8.468;2022-12-20T08:00:52;4.80;99.90
11083;DHT22;5595;50.186;8.468;2022-12-20T08:03:21;4.70;99.90
11083;DHT22;5595;50.186;8.468;2022-12-20T08:05:52;4.80;99.90
11083;DHT22;5595;50.186;8.468;2022-12-20T08:08:22;4.80;99.90
11083;DHT22;5595;50.186;8.468;2022-12-20T08:10:49;4.80;99.90
11083;DHT22;5595;50.186;8.468;2022-12-20T08:13:17;4.90;99.90
11083;DHT22;5595;50.186;8.468;2022-12-20T08:15:44;6.30;99.90
11083;DHT22;5595;50.186;8.468;2022-12-20T08:18:11;4.90;99.90
11083;DHT22;5595;50.186;8.468;2022-12-20T08:20:38;4.90;99.90
11083;DHT22;5595;50.186;8.468;2022-12-20T08:23:08;4.90;99.90
11083;DHT22;5595;50.186;8.468;2022-12-20T08:25:36;4.90;99.90
11083;DHT22;5595;50.186;8.468;2022-12-20T08:28:03;4.90;99.90
11083;DHT22;5595;50.186;8.468;2022-12-20T08:30:30;4.90;99.90
11083;DHT22;5595;50.186;8.468;2022-12-20T08:32:57;5.00;99.90
11083;DHT22;5595;50.186;8.468;2022-12-20T08:35:24;5.00;99.90
11083;DHT22;5595;50.186;8.468;2022-12-20T08:37:51;5.00;99.90
11083;DHT22;5595;50.186;8.468;2022-12-20T08:40:18;5.10;99.90
11083;DHT22;5595;50.186;8.468;2022-12-20T08:42:46;5.10;99.90
11083;DHT22;5595;50.186;8.468;2022-12-20T08:45:13;5.10;99.90
11083;DHT22;5595;50.186;8.468;2022-12-20T08:47:40;5.10;99.90
11083;DHT22;5595;50.186;8.468;2022-12-20T08:50:08;5.10;99.90
11083;DHT22;5595;50.186;8.468;2022-12-20T08:52:35;5.20;99.90
11083;DHT22;5595;50.186;8.468;2022-12-20T08:55:01;5.20;99.90
11083;DHT22;5595;50.186;8.468;2022-12-20T08:57:30;5.20;99.90
11083;DHT22;5595;50.186;8.468;2022-12-20T08:59:59;5.20;99.90
11083;DHT22;5595;50.186;8.468;2022-12-20T09:02:27;5.30;99.90
11083;DHT22;5595;50.186;8.468;2022-12-20T09:04:54;5.30;99.90
11083;DHT22;5595;50.186;8.468;2022-12-20T09:07:21;5.40;99.90
11083;DHT22;5595;50.186;8.468;2022-12-20T09:09:48;5.40;99.90
11083;DHT22;5595;50.186;8.468;2022-12-20T09:12:15;5.50;99.90
11083;DHT22;5595;50.186;8.468;2022-12-20T09:14:41;5.50;99.90
11083;DHT22;5595;50.186;8.468;2022-12-20T09:17:11;5.50;99.90
11083;DHT22;5595;50.186;8.468;2022-12-20T09:19:37;5.50;99.90
11083;DHT22;5595;50.186;8.468;2022-12-20T09:22:04;5.60;99.90
11083;DHT22;5595;50.186;8.468;2022-12-20T09:24:31;5.10;99.90
11083;DHT22;5595;50.186;8.468;2022-12-20T09:26:58;5.70;99.90
11083;DHT22;5595;50.186;8.468;2022-12-20T09:29:25;5.70;99.90
11083;DHT22;5595;50.186;8.468;2022-12-20T09:31:52;5.80;99.90
11083;DHT22;5595;50.186;8.468;2022-12-20T09:34:22;5.80;99.90
11083;DHT22;5595;50.186;8.468;2022-12-20T09:36:49;5.90;99.90
11083;DHT22;5595;50.186;8.468;2022-12-20T09:39:15;5.80;99.90
11083;DHT22;5595;50.186;8.468;2022-12-20T09:41:43;6.00;99.90
11083;DHT22;5595;50.186;8.468;2022-12-20T09:44:14;5.90;99.90
11083;DHT22;5595;50.186;8.468;2022-12-20T09:46:42;5.90;99.90
11083;DHT22;5595;50.186;8.468;2022-12-20T09:49:14;5.90;99.90
11083;DHT22;5595;50.186;8.468;2022-12-20T09:51:55;5.90;99.90
11083;DHT22;5595;50.186;8.468;2022-12-20T09:54:30;5.90;99.90
11083;DHT22;5595;50.186;8.468;2022-12-20T09:57:15;6.00;99.90
11083;DHT22;5595;50.186;8.468;2022-12-20T09:59:47;6.00;99.90
11083;DHT22;5595;50.186;8.468;2022-12-20T10:02:19;6.00;99.90
11083;DHT22;5595;50.186;8.468;2022-12-20T10:04:46;6.10;99.90
11083;DHT22;5595;50.186;8.468;2022-12-20T10:07:21;6.10;99.90
11083;DHT22;5595;50.186;8.468;2022-12-20T10:10:18;6.10;99.90
11083;DHT22;5595;50.186;8.468;2022-12-20T10:12:58;6.00;99.90
11083;DHT22;5595;50.186;8.468;2022-12-20T10:15:31;6.00;99.90
11083;DHT22;5595;50.186;8.468;2022-12-20T10:18:12;5.90;99.90
11083;DHT22;5595;50.186;8.468;2022-12-20T10:20:56;6.00;99.90
11083;DHT22;5595;50.186;8.468;2022-12-20T10:23:29;6.00;99.90
11083;DHT22;5595;50.186;8.468;2022-12-20T10:25:59;6.00;99.90
11083;DHT22;5595;50.186;8.468;2022-12-20T10:28:28;6.00;99.90
11083;DHT22;5595;50.186;8.468;2022-12-20T10:30:59;6.10;99.90
11083;DHT22;5595;50.186;8.468;2022-12-20T10:33:27;6.00;99.90
11083;DHT22;5595;50.186;8.468;2022-12-20T10:35:54;6.00;99.90
11083;DHT22;5595;50.186;8.468;2022-12-20T10:38:21;6.10;99.90
11083;DHT22;5595;50.186;8.468;2022-12-20T10:41:00;6.00;99.90
11083;DHT22;5595;50.186;8.468;2022-12-20T10:43:41;6.00;99.90
11083;DHT22;5595;50.186;8.468;2022-12-20T10:46:10;6.00;99.90
11083;DHT22;5595;50.186;8.468;2022-12-20T10:48:39;6.10;99.90
11083;DHT22;5595;50.186;8.468;2022-12-20T10:51:16;6.00;99.90
11083;DHT22;5595;50.186;8.468;2022-12-20T10:53:52;6.00;99.90
11083;DHT22;5595;50.186;8.468;2022-12-20T10:56:22;6.00;99.90
11083;DHT22;5595;50.186;8.468;2022-12-20T10:58:54;6.00;99.90
11083;DHT22;5595;50.186;8.468;2022-12-20T11:01:24;6.10;99.90
11083;DHT22;5595;50.186;8.468;2022-12-20T11:03:55;6.10;99.90
11083;DHT22;5595;50.186;8.468;2022-12-20T11:06:24;6.20;99.90
11083;DHT22;5595;50.186;8.468;2022-12-20T11:08:51;6.30;99.90
11083;DHT22;5595;50.186;8.468;2022-12-20T11:11:22;6.40;99.90
11083;DHT22;5595;50.186;8.468;2022-12-20T11:13:50;6.40;99.90
11083;DHT22;5595;50.186;8.468;2022-12-20T11:16:24;6.50;99.90
11083;DHT22;5595;50.186;8.468;2022-12-20T11:18:59;6.50;99.90
11083;DHT22;5595;50.186;8.468;2022-12-20T11:21:32;6.60;99.90
11083;DHT22;5595;50.186;8.468;2022-12-20T11:24:09;6.60;99.90
11083;DHT22;5595;50.186;8.468;2022-12-20T11:27:02;6.60;99.90
11083;DHT22;5595;50.186;8.468;2022-12-20T11:29:47;6.70;99.90
11083;DHT22;5595;50.186;8.468;2022-12-20T11:32:27;6.70;99.90
11083;DHT22;5595;50.186;8.468;2022-12-20T11:35:02;6.80;99.90
11083;DHT22;5595;50.186;8.468;2022-12-20T11:37:35;6.70;99.90
11083;DHT22;5595;50.186;8.468;2022-12-20T11:40:20;6.80;99.90
11083;DHT22;5595;50.186;8.468;2022-12-20T11:43:03;6.90;99.90
11083;DHT22;5595;50.186;8.468;2022-12-20T11:45:39;6.90;99.90
11083;DHT22;5595;50.186;8.468;2022-12-20T11:51:22;6.90;99.90
11083;DHT22;5595;50.186;8.468;2022-12-20T11:53:53;6.90;99.90
11083;DHT22;5595;50.186;8.468;2022-12-20T11:56:25;6.90;99.90
11083;DHT22;5595;50.186;8.468;2022-12-20T11:59:00;7.10;99.90
11083;DHT22;5595;50.186;8.468;2022-12-20T12:01:33;7.00;99.90
11083;DHT22;5595;50.186;8.468;2022-12-20T12:04:08;7.00;99.90
11083;DHT22;5595;50.186;8.468;2022-12-20T12:06:41;7.00;99.90
11083;DHT22;5595;50.186;8.468;2022-12-20T12:09:16;7.00;99.90
11083;DHT22;5595;50.186;8.468;2022-12-20T12:11:48;6.90;99.90
11083;DHT22;5595;50.186;8.468;2022-12-20T12:14:29;7.00;99.90
11083;DHT22;5595;50.186;8.468;2022-12-20T12:17:05;7.00;99.90
11083;DHT22;5595;50.186;8.468;2022-12-20T12:19:36;7.00;99.90
11083;DHT22;5595;50.186;8.468;2022-12-20T12:22:12;7.10;99.90
11083;DHT22;5595;50.186;8.468;2022-12-20T12:24:45;7.10;99.90
11083;DHT22;5595;50.186;8.468;2022-12-20T12:27:20;7.20;99.90
11083;DHT22;5595;50.186;8.468;2022-12-20T12:29:49;7.30;99.90
11083;DHT22;5595;50.186;8.468;2022-12-20T12:32:23;7.20;99.90
11083;DHT22;5595;50.186;8.468;2022-12-20T12:35:02;7.30;99.90
11083;DHT22;5595;50.186;8.468;2022-12-20T12:37:46;7.30;99.90
11083;DHT22;5595;50.186;8.468;2022-12-20T12:40:33;7.30;99.90
11083;DHT22;5595;50.186;8.468;2022-12-20T12:45:57;7.20;99.90
11083;DHT22;5595;50.186;8.468;2022-12-20T12:48:30;7.10;99.90
11083;DHT22;5595;50.186;8.468;2022-12-20T12:51:00;7.00;99.90
11083;DHT22;5595;50.186;8.468;2022-12-20T12:53:33;7.00;99.90
11083;DHT22;5595;50.186;8.468;2022-12-20T12:56:28;6.90;99.90
11083;DHT22;5595;50.186;8.468;2022-12-20T12:59:12;6.90;99.90
11083;DHT22;5595;50.186;8.468;2022-12-20T13:01:51;6.90;99.90
11083;DHT22;5595;50.186;8.468;2022-12-20T13:04:26;6.90;99.90
11083;DHT22;5595;50.186;8.468;2022-12-20T13:09:39;6.90;99.90
11083;DHT22;5595;50.186;8.468;2022-12-20T13:15:45;6.90;99.90
11083;DHT22;5595;50.186;8.468;2022-12-20T13:18:35;6.90;99.90
11083;DHT22;5595;50.186;8.468;2022-12-20T13:21:28;6.90;99.90
11083;DHT22;5595;50.186;8.468;2022-12-20T13:27:13;6.90;99.90
11083;DHT22;5595;50.186;8.468;2022-12-20T13:29:58;7.00;99.90
11083;DHT22;5595;50.186;8.468;2022-12-20T13:32:53;6.90;99.90
11083;DHT22;5595;50.186;8.468;2022-12-20T13:35:46;6.90;99.90
11083;DHT22;5595;50.186;8.468;2022-12-20T13:41:42;7.00;99.90
11083;DHT22;5595;50.186;8.468;2022-12-20T13:44:35;7.00;99.90
11083;DHT22;5595;50.186;8.468;2022-12-20T13:47:36;7.10;99.90
11083;DHT22;5595;50.186;8.468;2022-12-20T13:50:26;6.90;99.90
11083;DHT22;5595;50.186;8.468;2022-12-20T13:52:57;7.00;99.90
11083;DHT22;5595;50.186;8.468;2022-12-20T13:55:31;6.90;99.90
11083;DHT22;5595;50.186;8.468;2022-12-20T13:58:09;7.00;99.90
11083;DHT22;5595;50.186;8.468;2022-12-20T14:00:37;7.00;99.90
11083;DHT22;5595;50.186;8.468;2022-12-20T14:03:04;7.00;99.90
11083;DHT22;5595;50.186;8.468;2022-12-20T14:05:36;7.00;99.90
11083;DHT22;5595;50.186;8.468;2022-12-20T14:08:07;7.10;99.90
11083;DHT22;5595;50.186;8.468;2022-12-20T14:10:35;7.00;99.90
11083;DHT22;5595;50.186;8.468;2022-12-20T14:13:18;7.00;99.90
11083;DHT22;5595;50.186;8.468;2022-12-20T14:15:45;7.00;99.90
11083;DHT22;5595;50.186;8.468;2022-12-20T14:18:16;7.00;99.90
11083;DHT22;5595;50.186;8.468;2022-12-20T14:20:46;7.00;99.90
11083;DHT22;5595;50.186;8.468;2022-12-20T14:23:17;7.00;99.90
11083;DHT22;5595;50.186;8.468;2022-12-20T14:25:47;6.90;99.90
11083;DHT22;5595;50.186;8.468;2022-12-20T14:31:06;6.90;99.90
11083;DHT22;5595;50.186;8.468;2022-12-20T14:33:47;6.80;99.90
11083;DHT22;5595;50.186;8.468;2022-12-20T14:36:18;6.80;99.90
11083;DHT22;5595;50.186;8.468;2022-12-20T14:38:48;6.70;99.90
11083;DHT22;5595;50.186;8.468;2022-12-20T14:41:34;6.70;99.90
11083;DHT22;5595;50.186;8.468;2022-12-20T14:44:15;6.70;99.90
11083;DHT22;5595;50.186;8.468;2022-12-20T14:46:47;6.60;99.90
11083;DHT22;5595;50.186;8.468;2022-12-20T14:49:19;6.60;99.90
11083;DHT22;5595;50.186;8.468;2022-12-20T14:51:48;6.60;99.90
11083;DHT22;5595;50.186;8.468;2022-12-20T14:54:18;6.50;99.90
11083;DHT22;5595;50.186;8.468;2022-12-20T14:56:46;6.40;99.90
11083;DHT22;5595;50.186;8.468;2022-12-20T14:59:16;6.40;99.90
11083;DHT22;5595;50.186;8.468;2022-12-20T15:01:43;6.70;99.90
11083;DHT22;5595;50.186;8.468;2022-12-20T15:04:21;6.40;99.90
11083;DHT22;5595;50.186;8.468;2022-12-20T15:06:49;6.40;99.90
11083;DHT22;5595;50.186;8.468;2022-12-20T15:09:18;6.30;99.90
11083;DHT22;5595;50.186;8.468;2022-12-20T15:11:46;6.30;99.90
11083;DHT22;5595;50.186;8.468;2022-12-20T15:14:23;6.30;99.90
11083;DHT22;5595;50.186;8.468;2022-12-20T15:16:53;6.40;99.90
11083;DHT22;5595;50.186;8.468;2022-12-20T15:19:19;6.30;99.90
11083;DHT22;5595;50.186;8.468;2022-12-20T15:21:47;6.30;99.90
11083;DHT22;5595;50.186;8.468;2022-12-20T15:24:16;6.20;99.90
11083;DHT22;5595;50.186;8.468;2022-12-20T15:26:45;6.20;99.90
11083;DHT22;5595;50.186;8.468;2022-12-20T15:29:14;6.10;99.90
11083;DHT22;5595;50.186;8.468;2022-12-20T15:31:42;6.10;99.90
11083;DHT22;5595;50.186;8.468;2022-12-20T15:34:13;6.10;99.90
11083;DHT22;5595;50.186;8.468;2022-12-20T15:36:41;6.20;99.90
11083;DHT22;5595;50.186;8.468;2022-12-20T15:39:10;6.10;99.90
11083;DHT22;5595;50.186;8.468;2022-12-20T15:41:40;6.10;99.90
11083;DHT22;5595;50.186;8.468;2022-12-20T15:44:12;6.10;99.90
11083;DHT22;5595;50.186;8.468;2022-12-20T15:46:39;6.10;99.90
11083;DHT22;5595;50.186;8.468;2022-12-20T15:49:11;6.10;99.90
11083;DHT22;5595;50.186;8.468;2022-12-20T15:51:39;6.10;99.90
11083;DHT22;5595;50.186;8.468;2022-12-20T15:54:15;6.20;99.90
11083;DHT22;5595;50.186;8.468;2022-12-20T15:56:44;6.00;99.90
11083;DHT22;5595;50.186;8.468;2022-12-20T15:59:12;6.00;99.90
11083;DHT22;5595;50.186;8.468;2022-12-20T16:01:39;4.90;99.90
11083;DHT22;5595;50.186;8.468;2022-12-20T16:04:12;6.00;99.90
11083;DHT22;5595;50.186;8.468;2022-12-20T16:06:41;6.00;99.90
11083;DHT22;5595;50.186;8.468;2022-12-20T16:09:08;6.00;99.90
11083;DHT22;5595;50.186;8.468;2022-12-20T16:11:35;5.90;99.90
11083;DHT22;5595;50.186;8.468;2022-12-20T16:14:03;5.90;99.90
11083;DHT22;5595;50.186;8.468;2022-12-20T16:16:32;6.00;99.90
11083;DHT22;5595;50.186;8.468;2022-12-20T16:19:00;6.00;99.90
11083;DHT22;5595;50.186;8.468;2022-12-20T16:21:31;6.00;99.90
11083;DHT22;5595;50.186;8.468;2022-12-20T16:24:01;6.00;99.90
11083;DHT22;5595;50.186;8.468;2022-12-20T16:26:28;6.00;99.90
11083;DHT22;5595;50.186;8.468;2022-12-20T16:28:55;5.90;99.90
11083;DHT22;5595;50.186;8.468;2022-12-20T16:31:24;5.90;99.90
11083;DHT22;5595;50.186;8.468;2022-12-20T16:33:53;5.90;99.90
11083;DHT22;5595;50.186;8.468;2022-12-20T16:36:21;6.00;99.90
11083;DHT22;5595;50.186;8.468;2022-12-20T16:38:48;5.90;99.90
11083;DHT22;5595;50.186;8.468;2022-12-20T16:41:16;5.90;99.90
11083;DHT22;5595;50.186;8.468;2022-12-20T16:43:44;5.90;99.90
11083;DHT22;5595;50.186;8.468;2022-12-20T16:46:11;5.90;99.90
11083;DHT22;5595;50.186;8.468;2022-12-20T16:48:39;5.90;99.90